Latest Coastal Weather Observations for Neptune Island

IDS60701

Issued at 3:21 am CST Wednesday 29 July 2015 (issued every 10 minutes, with the page automatically refreshed every 10 minutes)

About coastal observations | Map of coastal stations | Coastal observations for SA | Marine services | Other Formats
Station Details ID: 018115 Name: NEPTUNE ISLAND Lat: -35.34 Lon: 136.12 Height: 32.0 m
Data from the previous 72 hours. | See also: Recent months at Neptune Island
Date/Time
CST
Temp

°C
Wind Pressure Rain
since 9am
mm
Weather Cloud Vis
km
Sea
Height
m
Swell
Dir
 
Speed
knots
Gust
knots
hPa Trend Height
m
Period
s
Dir
29/03:00am 12.1 NNE 21 24 1028.4 - 0.0 - - - - - - -
29/02:30am 12.0 NNE 22 26 1028.9 - 0.0 - - - - - - -
29/02:00am 12.1 N 20 25 1029.6 - 0.0 - - - - - - -
29/01:30am 12.0 NNE 21 24 1029.4 - 0.0 - - - - - - -
29/01:00am 12.1 NNE 21 23 1029.6 - 0.0 - - - - - - -
29/12:30am 12.0 NNE 20 22 1029.9 - 0.0 - - - - - - -
29/12:00am 12.1 NNE 21 24 1030.3 - 0.0 - - - - - - -
 
Date/Time
CST
Temp

°C
Wind Pressure Rain
since 9am
mm
Weather Cloud Vis
km
Sea
Height
m
Swell
Dir
 
Speed
knots
Gust
knots
hPa Trend Height
m
Period
s
Dir
28/11:30pm 12.0 NNE 18 20 1030.5 - 0.0 - - - - - - -
28/11:00pm 11.9 NNE 17 20 1031.0 - 0.0 - - - - - - -
28/10:30pm 11.8 NNE 15 18 1031.4 - 0.0 - - - - - - -
28/10:00pm 11.6 NNE 15 17 1031.5 - 0.0 - - - - - - -
28/09:30pm 11.5 NNE 12 16 1032.0 - 0.0 - - - - - - -
28/09:00pm 11.4 NNE 12 14 1032.7 - 0.0 - - - - - - -
28/08:30pm 11.5 NNE 12 15 1032.7 - 0.0 - - - - - - -
28/08:00pm 11.7 NNE 13 17 1032.3 - 0.0 - - - - - - -
28/07:30pm 11.5 NNE 12 15 1032.7 - 0.0 - - - - - - -
28/07:00pm 11.5 NNE 11 14 1032.9 - 0.0 - - - - - - -
28/06:30pm 11.4 N 11 12 1032.9 - 0.0 - - - - - - -
28/06:00pm 11.5 N 10 12 1032.9 - 0.0 - - - - - - -
28/05:30pm 11.7 N 10 13 1032.7 - 0.0 - - - - - - -
28/05:00pm 12.1 N 10 12 1032.9 - 0.0 - - - - - - -
28/04:30pm 12.3 NNE 12 14 1033.0 - 0.0 - - - - - - -
28/04:00pm 12.7 N 10 13 1033.4 - 0.0 - - - - - - -
28/03:30pm 13.1 N 11 15 1033.5 - 0.0 - - - - - - -
28/03:00pm 13.6 N 11 16 1033.5 - 0.0 - - - - - - -
28/02:30pm 13.3 N 12 14 1033.8 - 0.0 - - - - - - -
28/02:00pm 14.0 N 13 16 1033.7 - 0.0 - - - - - - -
28/01:30pm 14.1 N 11 14 1034.2 - 0.0 - - - - - - -
28/01:00pm 13.9 N 11 15 1034.5 - 0.0 - - - - - - -
28/12:30pm 13.3 NNW 11 14 1035.1 - 0.0 - - - - - - -
28/12:00pm 13.9 NNW 12 15 1035.7 - 0.0 - - - - - - -
28/11:30am 13.8 NNW 13 15 1036.3 - 0.0 - - - - - - -
28/11:00am 13.4 NNW 12 15 1036.4 - 0.0 - - - - - - -
28/10:30am 13.2 NNW 13 15 1036.5 - 0.0 - - - - - - -
28/10:00am 12.7 NNW 13 15 1036.5 - 0.0 - - - - - - -
28/09:30am 12.4 NNW 12 15 1036.4 - 0.0 - - - - - - -
28/09:00am 12.1 WNW 9 11 1036.3 - 0.2 - - - - - - -
28/08:30am 11.6 WNW 8 12 1036.1 - 0.2 - - - - - - -
28/08:00am 11.6 N 10 12 1035.9 - 0.2 - - - - - - -
28/07:30am 11.3 NNW 9 11 1035.6 - 0.2 - - - - - - -
28/07:00am 11.0 NNW 10 12 1035.6 - 0.2 - - - - - - -
28/06:30am 11.1 NW 11 13 1035.8 - 0.2 - - - - - - -
28/06:00am 10.7 NW 11 15 1035.7 - 0.2 - - - - - - -
28/05:30am 10.5 NNW 12 15 1035.8 - 0.2 - - - - - - -
28/05:00am 10.7 NNW 11 13 1035.6 - 0.2 - - - - - - -
28/04:30am 11.1 SW 8 11 1035.4 - 0.2 - - - - - - -
28/04:00am 11.5 W 15 17 1035.4 - 0.0 - - - - - - -
28/03:30am 11.5 WNW 5 6 1035.3 - 0.0 - - - - - - -
28/03:00am 11.5 W 6 7 1035.4 - 0.0 - - - - - - -
28/02:30am 11.4 WNW 7 8 1035.4 - 0.0 - - - - - - -
28/02:00am 11.4 WNW 8 10 1035.2 - 0.0 - - - - - - -
28/01:30am 11.6 W 8 10 1035.1 - 0.0 - - - - - - -
28/01:00am 11.5 WSW 8 10 1035.1 - 0.0 - - - - - - -
28/12:30am 11.6 WSW 8 11 1035.3 - 0.0 - - - - - - -
28/12:00am 11.7 W 9 11 1035.5 - 0.0 - - - - - - -
 
Date/Time
CST
Temp

°C
Wind Pressure Rain
since 9am
mm
Weather Cloud Vis
km
Sea
Height
m
Swell
Dir
 
Speed
knots
Gust
knots
hPa Trend Height
m
Period
s
Dir
27/11:30pm 11.6 W 9 12 1035.4 - 0.0 - - - - - - -
27/11:00pm 11.5 WSW 9 11 1035.5 - 0.0 - - - - - - -
27/10:30pm 11.4 WSW 9 11 1035.4 - 0.0 - - - - - - -
27/10:00pm 11.5 WSW 8 11 1035.5 - 0.0 - - - - - - -
27/09:30pm 11.5 WSW 9 11 1035.4 - 0.0 - - - - - - -
27/09:00pm 11.4 WSW 12 15 1035.5 - 0.0 - - - - - - -
27/08:30pm 11.6 WSW 11 13 1035.4 - 0.0 - - - - - - -
27/08:00pm 11.7 WSW 10 13 1035.4 - 0.0 - - - - - - -
27/07:30pm 11.7 WSW 13 15 1035.2 - 0.0 - - - - - - -
27/07:00pm 11.7 WSW 10 13 1035.0 - 0.0 - - - - - - -
27/06:30pm 11.7 WSW 13 16 1034.8 - 0.0 - - - - - - -
27/06:00pm 11.6 WSW 9 11 1034.6 - 0.0 - - - - - - -
27/05:30pm 11.9 WSW 15 21 1034.5 - 0.0 - - - - - - -
27/05:00pm 12.1 WSW 17 21 1034.4 - 0.0 - - - - - - -
27/04:30pm 12.7 WSW 13 16 1034.3 - 0.0 - - - - - - -
27/04:00pm 13.1 WSW 11 14 1034.3 - 0.0 - - - - - - -
27/03:30pm 12.4 SW 13 17 1034.3 - 0.0 - - - - - - -
27/03:00pm 13.1 WSW 13 16 1034.2 - 0.0 - - - - - - -
27/02:30pm 13.2 WSW 14 17 1034.1 - 0.0 - - - - - - -
27/02:00pm 13.3 WSW 12 15 1034.1 - 0.0 - - - - - - -
27/01:30pm 12.9 WSW 10 14 1034.3 - 0.0 - - - - - - -
27/01:00pm 13.2 WSW 13 16 1034.3 - 0.0 - - - - - - -
27/12:30pm 12.7 WSW 12 16 1034.5 - 0.0 - - - - - - -
27/12:00pm 13.0 WSW 11 14 1034.6 - 0.0 - - - - - - -
27/11:30am 12.9 WSW 12 15 1034.8 - 0.0 - - - - - - -
27/11:00am 13.1 WSW 10 11 1034.9 - 0.0 - - - - - - -
27/10:30am 12.5 WSW 11 14 1034.9 - 0.0 - - - - - - -
27/10:00am 12.1 WSW 11 14 1034.7 - 0.0 - - - - - - -
27/09:30am 11.9 SW 10 13 1034.4 - 0.0 - - - - - - -
27/09:00am 11.4 WSW 12 16 1034.1 - 0.6 - - - - - - -
27/08:30am 11.1 SW 12 14 1033.7 - 0.6 - - - - - - -
27/08:00am 10.8 WSW 14 17 1033.5 - 0.6 - - - - - - -
27/07:30am 10.8 SW 13 15 1033.1 - 0.6 - - - - - - -
27/07:00am 10.1 SW 18 25 1033.0 - 0.6 - - - - - - -
27/06:30am 11.1 SW 13 16 1032.5 - 0.6 - - - - - - -
27/06:00am 11.0 WSW 15 18 1032.1 - 0.6 - - - - - - -
27/05:30am 10.7 WSW 14 17 1031.9 - 0.6 - - - - - - -
27/05:00am 10.8 SW 13 16 1031.5 - 0.6 - - - - - - -
27/04:30am 10.6 SW 11 14 1031.3 - 0.6 - - - - - - -
27/04:00am 10.8 SW 15 18 1031.2 - 0.6 - - - - - - -
27/03:30am 10.7 SW 14 17 1031.2 - 0.6 - - - - - - -
27/03:00am 10.7 SW 14 18 1031.1 - 0.6 - - - - - - -
27/02:30am 10.0 WSW 14 19 1031.2 - 0.6 - - - - - - -
27/02:00am 10.5 WSW 15 18 1030.9 - 0.6 - - - - - - -
27/01:30am 10.3 SSW 11 15 1031.1 - 0.6 - - - - - - -
27/01:00am 10.9 SW 14 18 1030.7 - 0.2 - - - - - - -
27/12:30am 11.0 SW 16 21 1030.6 - 0.2 - - - - - - -
27/12:00am 11.0 SSW 15 19 1030.5 - 0.2 - - - - - - -
 
Date/Time
CST
Temp

°C
Wind Pressure Rain
since 9am
mm
Weather Cloud Vis
km
Sea
Height
m
Swell
Dir
 
Speed
knots
Gust
knots
hPa Trend Height
m
Period
s
Dir
26/11:30pm 11.1 WSW 15 18 1030.3 - 0.2 - - - - - - -
26/11:00pm 11.0 SW 13 18 1030.2 - 0.2 - - - - - - -
26/10:30pm 11.0 SW 15 19 1030.1 - 0.2 - - - - - - -
26/10:01pm 11.0 SW 16 26 1029.7 - 0.2 - - - - - - -
26/10:00pm 11.2 SW 15 24 1029.8 - 0.2 - - - - - - -
26/09:30pm 11.0 SW 16 20 1029.6 - 0.2 - - - - - - -
26/09:00pm 11.0 SW 18 23 1029.3 - 0.2 - - - - - - -
26/08:30pm 11.0 SW 18 24 1028.9 - 0.2 - - - - - - -
26/08:00pm 10.6 SW 18 22 1028.7 - 0.2 - - - - - - -
26/07:30pm 10.8 SW 18 26 1028.2 - 0.2 - - - - - - -
26/07:00pm 10.8 SW 19 23 1028.0 - 0.2 - - - - - - -
26/06:30pm 10.8 SW 21 24 1027.5 - 0.2 - - - - - - -
26/06:00pm 10.4 SW 16 23 1027.2 - 0.2 Rain - - - - - -
26/05:32pm 11.0 SW 16 27 1026.7 - 0.0 - - - - - - -
26/05:30pm 10.8 SW 15 23 1026.7 - 0.0 - - - - - - -
26/05:21pm 10.3 SW 17 27 1026.8 - 0.0 - - - - - - -
26/05:00pm 11.0 SW 21 26 1026.2 - 0.0 - - - - - - -
26/04:30pm 11.3 SW 19 24 1026.0 - 0.0 - - - - - - -
26/04:00pm 11.1 WSW 18 23 1025.8 - 0.0 - - - - - - -
26/03:30pm 11.1 WSW 21 26 1025.5 - 0.0 - - - - - - -
26/03:00pm 11.4 SW 23 29 1025.1 - 0.0 - - - - - - -
26/02:30pm 11.2 SW 16 21 1025.1 - 0.0 - - - - - - -
26/02:06pm 11.5 SW 22 32 1024.6 - 0.0 - - - - - - -
26/02:00pm 11.9 SSW 22 27 1024.8 - 0.0 - - - - - - -
26/01:45pm 11.3 SW 25 31 1024.6 - 0.0 - - - - - - -
26/01:30pm 12.0 WSW 22 29 1024.6 - 0.0 - - - - - - -
26/01:00pm 11.8 WSW 24 29 1024.7 - 0.0 - - - - - - -
26/12:30pm 11.4 WSW 22 27 1024.7 - 0.0 - - - - - - -
26/12:08pm 11.5 SW 20 32 1024.7 - 0.0 - - - - - - -
26/12:00pm 11.1 SW 20 25 1024.8 - 0.0 - - - - - - -
26/11:39am 11.1 SW 22 32 1024.6 - 0.0 - - - - - - -
26/11:30am 11.2 SW 23 29 1024.7 - 0.0 - - - - - - -
26/11:00am 11.0 WSW 23 28 1024.5 - 0.0 - - - - - - -
26/10:30am 11.2 SW 25 32 1024.0 - 0.0 - - - - - - -
26/10:00am 11.2 SW 24 30 1023.5 - 0.0 - - - - - - -
26/09:31am 9.7 WSW 23 33 1023.3 - 0.0 - - - - - - -
26/09:30am 9.7 WSW 24 33 1023.3 - 0.0 - - - - - - -
26/09:00am 11.1 SW 24 30 1022.5 - 3.6 - - - - - - -
26/08:30am 10.4 WSW 23 30 1022.2 - 3.6 - - - - - - -
26/08:00am 10.2 WSW 24 33 1021.7 - 3.6 - - - - - - -
26/07:55am 10.1 WSW 19 30 1021.7 - 3.6 - - - - - - -
26/07:45am 9.3 WSW 27 36 1021.7 - 3.6 - - - - - - -
26/07:30am 9.9 WSW 31 40 1021.2 - 3.2 - - - - - - -
26/07:26am 10.4 WSW 29 40 1020.9 - 3.2 - - - - - - -
26/07:00am 10.6 WSW 29 35 1020.6 - 3.2 - - - - - - -
26/06:30am 10.7 WSW 29 39 1020.1 - 3.2 - - - - - - -
26/06:26am 10.5 WSW 29 39 1020.1 - 3.2 - - - - - - -
26/06:00am 10.8 WSW 29 36 1019.4 - 3.2 - - - - - - -
26/05:30am 10.7 WSW 31 37 1018.8 - 3.2 - - - - - - -
26/05:00am 10.8 SW 29 34 1018.5 - 3.2 - - - - - - -
26/04:37am 11.0 WSW 28 39 1018.1 - 3.2 - - - - - - -
26/04:30am 10.9 WSW 28 34 1018.2 - 3.2 - - - - - - -
26/04:00am 10.7 WSW 28 39 1017.8 - 3.2 - - - - - - -
26/03:58am 10.7 WSW 26 39 1017.7 - 3.2 - - - - - - -
26/03:54am 10.5 WSW 22 34 1017.9 - 3.2 - - - - - - -
26/03:30am 10.2 WSW 28 32 1017.9 - 3.2 - - - - - - -

Other Formats:

Comma delimited format used in spreadsheet applications
http://www.bom.gov.au/fwo/IDS60701/IDS60701.94804.axf

JavaScript Object Notation format (JSON) in row-major order
http://www.bom.gov.au/fwo/IDS60701/IDS60701.94804.json